Chickering American River Reserve, California Weather observations

Data are for 10 minute period ending at time listed.
 Day   Time   Solar   Ave.   Ave.  Ave.  Vector  Max.   Baro.   Total    
  of    of     Rad.   Air    Rel.  Wind   Wind   Wind  Press.  Precip.   
Year   Day            Temp.  Hum.  Speed  Dir.   Gust                    
2014   (PST)  Kw/m2    F      %     mph   deg.    mph    mb.     in.     
-------------------------------------------------------------------------
 297   10:10   0.53   60.3    31    2.1   138     6.0   819.8    0.00 
 297   10:20   0.63   61.3    30    2.7   161     8.5   819.7    0.00 
 297   10:30   0.65   62.6    30    1.8   310     6.9   819.5    0.00 
 297   10:40   0.66   63.2    29    2.7   263    10.2   819.3    0.00 
 297   10:50   0.67   63.9    30    2.0   131     9.0   819.0    0.00 
 297   11:00   0.68   64.1    28    2.5   165     6.6   819.0    0.00 
 297   11:10   0.69   64.0    29    2.1   165     8.3   818.9    0.00 
 297   11:20   0.70   64.2    27    3.8   221    11.5   818.8    0.00 
 297   11:30   0.70   64.8    27    2.8   178     7.7   818.6    0.00 
 297   11:40   0.70   65.5    27    2.1    78     5.7   818.5    0.00 
 297   11:50   0.71   66.0    26    2.8   343     7.7   818.4    0.00 
 297   12:00   0.70   65.9    25    3.0   337    14.1   818.3    0.00 
 297   12:10   0.70   66.1    25    3.0   140    10.0   818.2    0.00 
 297   12:20   0.70   66.7    25    2.2    94     6.6   818.1    0.00 
 297   12:30   0.69   67.0    24    2.2    20     6.8   817.9    0.00 
 297   12:40   0.68   67.0    24    2.6    22     8.8   817.9    0.00 
 297   12:50   0.67   66.7    25    2.7   315     6.5   817.8    0.00 
 297   13:00   0.65   67.1    24    2.7    33    13.2   817.7    0.00 
 297   13:10   0.64   66.8    24    2.2   216     7.9   817.7    0.00 
 297   13:20   0.62   66.9    24    2.2   296     6.3   817.6    0.00 
 297   13:30   0.60   66.9    23    2.7   220    13.4   817.6    0.00 
 297   13:40   0.59   66.7    25    2.8    47     7.2   817.4    0.00 
 297   13:50   0.56   66.4    26    2.0   129     7.2   817.5    0.00 
 297   14:00   0.54   65.9    25    2.5   330     8.6   817.4    0.00 
 297   14:10   0.52   66.0    25    2.2   225    11.0   817.4    0.00 
 297   14:20   0.50   65.2    26    2.4    30     6.4   817.2    0.00 
 297   14:30   0.15   64.2    25    2.6   196     7.3   817.2    0.00 
 297   14:40   0.04   64.0    26    1.9   183     7.5   817.2    0.00 
 297   14:50   0.03   63.3    29    1.2    20     4.1   817.2    0.00 
 297   15:00   0.12   63.6    29    0.8    54     3.9   817.2    0.00 
 297   15:10   0.21   62.9    32    1.3    33     6.9   817.2    0.00 
 297   15:20   0.03   60.9    35    1.1    80     3.3   817.2    0.00 
 297   15:30   0.01   60.7    34    1.0   197     4.5   817.3    0.00 
 297   15:40   0.01   59.8    36    1.4    27     4.4   817.3    0.00 
 297   15:50   0.01   59.0    38    1.1   117     3.7   817.2    0.00 
 297   16:00   0.01   58.4    38    1.0    10     3.5   817.2    0.00 
 297   16:10   0.01   57.8    40    1.7     3     5.6   817.1    0.00 
 297   16:20   0.01   57.3    40    1.1    29     3.3   817.1    0.00 
 297   16:30   0.01   56.8    41    1.2   304     3.9   817.2    0.00 
 297   16:40   0.01   56.4    42    1.1   342     3.7   817.3    0.00 
 297   16:50   0.00   55.7    43    0.5   218     2.6   817.3    0.00 
 297   17:00   0.00   54.9    46    0.8   211     2.6   817.3    0.00 
 297   17:10   0.00   54.1    46    1.1   215     3.0   817.3    0.00 
 297   17:20   0.00   53.2    49    1.2   250     3.7   817.3    0.00 
 297   17:30   0.00   51.7    52    1.1   223     2.6   817.3    0.00 
 297   17:40   0.00   50.5    54    1.6   222     2.9   817.4    0.00 
 297   17:50   0.00   49.9    54    1.4   223     3.4   817.4    0.00 
 297   18:00   0.00   48.9    56    1.5   233     2.9   817.5    0.00 
 297   18:10   0.00   48.8    55    1.3   217     3.8   817.6    0.00 
 297   18:20   0.00   48.5    56    1.5   218     3.4   817.6    0.00 
 297   18:30   0.00   48.3    56    1.4   208     2.8   817.7    0.00 
 297   18:40   0.00   48.1    57    1.2   210     3.7   817.7    0.00 
 297   18:50   0.00   47.5    59    1.3   218     2.4   817.7    0.00 
 297   19:00   0.00   46.6    61    1.5   213     2.3   817.6    0.00 
 297   19:10   0.00   45.7    63    1.7   207     2.9   817.6    0.00 
 297   19:20   0.00   45.4    63    1.6   233     3.1   817.7    0.00 
 297   19:30   0.00   44.7    65    1.7   220     3.2   817.8    0.00 
 297   19:40   0.00   45.2    63    1.0   238     2.0   817.8    0.00 
 297   19:50   0.00   44.6    66    1.9   198     3.5   817.8    0.00 
 297   20:00   0.00   43.9    67    1.9   232     4.0   817.9    0.00 
 297   20:10   0.00   43.6    67    2.1   219     3.7   817.9    0.00 
 297   20:20   0.00   43.8    66    1.6   215     3.1   817.9    0.00 
 297   20:30   0.00   43.1    68    1.3   246     3.1   817.9    0.00 
 297   20:40   0.00   43.9    65    1.0   243     2.9   817.8    0.00 
 297   20:50   0.00   43.8    65    1.6   229     2.9   817.9    0.00 
 297   21:00   0.00   45.0    62    1.7   269     3.7   817.9    0.00 
 297   21:10   0.00   44.9    63    0.8   204     2.3   817.8    0.00 
 297   21:20   0.00   45.1    62    1.4   251     4.7   817.7    0.00 
 297   21:30   0.00   44.5    62    1.7   304     4.1   817.7    0.00 
 297   21:40   0.00   46.7    55    1.0   274     4.2   817.7    0.00 
 297   21:50   0.00   47.0    54    0.9    70     4.1   817.8    0.00 
 297   22:00   0.00   48.1    50    2.0   211    10.4   817.8    0.00 
 297   22:10   0.00   48.6    48    2.1   312     7.2   817.8    0.00 
 297   22:20   0.00   48.8    48    1.8   181     5.3   817.7    0.00 
 297   22:30   0.00   48.3    48    1.6    18     5.3   817.6    0.00 
 297   22:40   0.00   47.8    49    1.6   290     5.3   817.6    0.00 
 297   22:50   0.00   46.3    53    1.0   220     3.2   817.6    0.00 
 297   23:00   0.00   46.8    50    1.2     8     2.9   817.5    0.00 
 297   23:10   0.00   47.3    49    1.8   226     4.3   817.3    0.00 
 297   23:20   0.00   47.5    47    1.4   308     3.2   817.2    0.00 
 297   23:30   0.00   48.3    45    2.0   300     5.9   817.2    0.00 
 297   23:40   0.00   49.3    46    1.3   338     3.7   817.1    0.00 
 297   23:50   0.00   47.2    49    0.9    76     2.6   817.0    0.00 
 298    0:00   0.00   47.8    47    1.1   275     4.4   817.0    0.00 
 298    0:10   0.00   47.8    48    0.9   320     2.6   817.0    0.00 
 298    0:20   0.00   47.8    46    2.2    26     7.8   817.0    0.00 
 298    0:30   0.00   47.8    47    1.6    43     4.3   817.0    0.00 
 298    0:40   0.00   47.5    47    1.5   335     4.2   817.0    0.00 
 298    0:50   0.00   47.8    47    1.4   318     6.0   817.0    0.00 
 298    1:00   0.00   47.8    47    1.6   355     7.7   817.1    0.00 
 298    1:10   0.00   47.9    47    1.1   250     4.4   817.1    0.00 
 298    1:20   0.00   48.6    44    1.3   311     4.8   817.0    0.00 
 298    1:30   0.00   48.2    46    1.4    47     5.0   816.8    0.00 
 298    1:40   0.00   47.7    47    1.1   333     3.1   816.8    0.00 
 298    1:50   0.00   48.4    47    1.4    46     5.8   816.7    0.00 
 298    2:00   0.00   47.8    48    1.6    27     5.3   816.6    0.00 
 298    2:10   0.00   48.2    47    1.6   312     5.6   816.6    0.00 
 298    2:20   0.00   48.6    45    1.3   258     6.2   816.3    0.00 
 298    2:30   0.00   48.4    47    1.7   256     9.1   816.3    0.00 
 298    2:40   0.00   47.8    48    2.2   328     9.2   816.4    0.00 
 298    2:50   0.00   46.9    50    2.0   132    10.4   816.3    0.00 
 298    3:00   0.00   47.5    47    1.6   304     8.0   816.3    0.00 
 298    3:10   0.00   48.1    46    2.6   238     7.5   816.2    0.00 
 298    3:20   0.00   48.1    47    1.7     1     9.3   816.2    0.00 
 298    3:30   0.00   47.2    49    2.1     6     8.3   816.1    0.00 
 298    3:40   0.00   46.5    52    1.2   341     3.5   816.1    0.00 
 298    3:50   0.00   45.8    53    2.5   354     9.1   816.1    0.00 
 298    4:00   0.00   45.2    56    1.5    87     5.9   816.1    0.00 
 298    4:10   0.00   45.1    56    1.4   314     4.7   816.2    0.00 
 298    4:20   0.00   45.2    56    2.0    14     8.6   816.0    0.00 
 298    4:30   0.00   44.9    58    2.7   251     9.8   816.2    0.00 
 298    4:40   0.00   44.8    60    1.9    44     5.5   816.2    0.00 
 298    4:50   0.00   44.4    60    2.0   246     5.6   816.2    0.00 
 298    5:00   0.00   44.5    60    2.8     8    12.5   816.4    0.00 
 298    5:10   0.00   44.7    60    1.8   330     5.9   816.6    0.00 
 298    5:20   0.00   44.9    60    2.3   331     8.8   816.7    0.00 
 298    5:30   0.00   44.6    62    2.0    40     6.5   816.8    0.00 
 298    5:40   0.00   44.1    66    1.6    41     5.2   816.8    0.00 
 298    5:50   0.00   43.7    70    2.3   333    10.3   816.9    0.00 
 298    6:00   0.00   43.5    75    2.4   306    11.5   816.8    0.00 
 298    6:10   0.00   43.0    77    1.2    58     6.1   816.8    0.00 
 298    6:20   0.00   42.8    76    1.6   222     5.2   816.9    0.00 
 298    6:30   0.00   42.5    76    1.8    96     8.3   817.0    0.00 
 298    6:40   0.00   42.5    75    1.4   349     5.1   817.0    0.00 
 298    6:50   0.00   42.6    73    2.6     9     9.5   817.0    0.00 
 298    7:00   0.01   43.2    70    2.5   326     6.8   817.1    0.00 
 298    7:10   0.01   43.4    70    2.4   320     6.9   817.1    0.00 
 298    7:20   0.01   43.4    70    2.4   285     7.2   817.2    0.00 
 298    7:30   0.02   43.6    68    2.5   348     8.6   817.0    0.00 
 298    7:40   0.03   43.9    66    3.0    33     7.5   816.9    0.00 
 298    7:50   0.07   45.1    61    2.8   226    11.4   816.8    0.00 
 298    8:00   0.16   46.7    59    2.1    14     7.2   816.7    0.00 
 298    8:10   0.15   47.7    55    2.3   208     6.9   816.6    0.00 
 298    8:20   0.08   47.7    56    2.3   302     8.3   816.8    0.00 
 298    8:30   0.04   46.9    58    2.4   224     9.9   817.0    0.00 
 298    8:40   0.06   45.2    69    2.3    50     5.3   817.0    0.00 
 298    8:50   0.05   44.6    71    3.0   300    11.0   817.1    0.00 
 298    9:00   0.07   44.6    74    2.8   113    10.5   817.3    0.00 
 298    9:10   0.06   42.8    82    2.8   145    13.4   817.5    0.00 
 298    9:20   0.11   42.3    87    2.8   198    15.3   817.5    0.00 
 298    9:30   0.07   42.1    90    2.1   285     6.0   817.6    0.00 
 298    9:40   0.05   42.0    90    2.8   200    11.1   817.7    0.00 
 298    9:50   0.07   41.6    90    2.5   177     6.3   817.8    0.00 
 298   10:00   0.06   41.3    94    2.0    72     4.9   817.7    0.00 

Return to Chickering American River Reserve graphs page.


Western Regional Climate Center,wrcc@dri.edu